Time;durP1;ratioP1;P1;durP2;ratioP2;P2;SDS_P1;SDS_P2;PMS_P1;PMS_P2;Temp;Humidity;BMP_temperature;BMP_pressure;BME280_temperature;BME280_humidity;BME280_pressure;Samples;Min_cycle;Max_cycle;Signal;HPM_P1;HPM_P2
2021/03/04 00:00:32;;;;;;;3.28;1.17;;;;;;;4.65;52.81;98522.03;5064646;28;20053;-46
2021/03/04 00:02:58;;;;;;;4.00;1.20;;;;;;;4.72;51.92;98510.84;5064669;28;20040;-45
2021/03/04 00:05:24;;;;;;;5.07;1.00;;;;;;;4.78;51.90;98495.41;5077070;28;20043;-50
2021/03/04 00:07:49;;;;;;;3.88;0.80;;;;;;;4.67;51.77;98485.66;5053914;28;20037;-48
2021/03/04 00:10:18;;;;;;;4.60;0.90;;;;;;;4.63;52.51;98482.41;5063508;28;20046;-49
2021/03/04 00:12:44;;;;;;;4.45;0.95;;;;;;;4.54;52.46;98467.22;5064701;28;20081;-43
2021/03/04 00:15:11;;;;;;;4.75;1.00;;;;;;;4.58;52.42;98466.84;5078435;28;20044;-51
2021/03/04 00:17:36;;;;;;;2.67;1.20;;;;;;;4.52;53.07;98458.53;5084119;28;20032;-44
2021/03/04 00:20:11;;;;;;;2.85;1.00;;;;;;;4.62;53.38;98469.25;5072965;28;20089;-44
2021/03/04 00:22:37;;;;;;;4.90;1.15;;;;;;;4.57;53.18;98461.66;5073693;28;20028;-47
2021/03/04 00:25:04;;;;;;;5.28;1.20;;;;;;;4.60;53.50;98466.75;5075263;28;20047;-45
2021/03/04 00:27:30;;;;;;;3.60;1.00;;;;;;;4.61;53.03;98452.53;5085699;28;20082;-47
2021/03/04 00:29:57;;;;;;;6.38;1.17;;;;;;;4.30;53.16;98380.69;5062008;28;20036;-44
2021/03/04 00:32:22;;;;;;;4.65;1.27;;;;;;;4.67;52.99;98436.13;5071293;28;20515;-48
2021/03/04 00:34:48;;;;;;;3.25;1.33;;;;;;;4.67;53.28;98441.44;5072339;28;20036;-47
2021/03/04 00:37:13;;;;;;;4.95;0.90;;;;;;;4.66;53.64;98446.84;5064512;28;20029;-53
2021/03/04 00:39:39;;;;;;;2.92;0.88;;;;;;;4.65;53.23;98440.72;5066023;28;20399;-49
2021/03/04 00:42:05;;;;;;;1.77;0.77;;;;;;;4.67;53.82;98424.69;5083218;28;20028;-44
2021/03/04 00:44:30;;;;;;;1.98;0.90;;;;;;;4.70;53.78;98432.38;5066347;28;20037;-42
2021/03/04 00:46:56;;;;;;;4.32;0.90;;;;;;;4.44;52.97;98377.81;5053732;28;20412;-49
2021/03/04 00:49:21;;;;;;;3.72;1.00;;;;;;;4.74;53.24;98416.13;5060684;28;20037;-44
2021/03/04 00:51:47;;;;;;;2.45;0.90;;;;;;;4.78;53.84;98427.34;5061640;28;20036;-46
2021/03/04 00:54:12;;;;;;;4.03;1.25;;;;;;;4.77;53.79;98427.44;5075017;28;20036;-44
2021/03/04 00:56:38;;;;;;;3.47;1.05;;;;;;;4.77;53.55;98414.19;5080803;28;20039;-46
2021/03/04 00:59:03;;;;;;;3.83;1.00;;;;;;;4.79;54.09;98425.50;5069503;28;20079;-46
2021/03/04 01:01:28;;;;;;;3.38;0.93;;;;;;;4.76;54.00;98404.53;5067217;28;20052;-45
2021/03/04 01:03:54;;;;;;;2.30;0.93;;;;;;;4.76;53.86;98413.34;5072268;28;20040;-44
2021/03/04 01:06:19;;;;;;;3.47;1.02;;;;;;;4.70;54.06;98388.16;5080139;28;20055;-42
2021/03/04 01:08:47;;;;;;;4.05;0.95;;;;;;;4.81;53.82;98391.75;5072961;28;20044;-44
2021/03/04 01:11:14;;;;;;;3.78;1.33;;;;;;;4.85;53.91;98388.75;5079576;28;20412;-44
2021/03/04 01:13:39;;;;;;;2.92;1.10;;;;;;;4.81;53.73;98395.28;5070690;28;20036;-51
2021/03/04 01:16:05;;;;;;;3.28;1.20;;;;;;;4.64;54.27;98359.50;5081580;28;20023;-45
2021/03/04 01:18:31;;;;;;;1.55;0.90;;;;;;;4.74;54.24;98384.31;5074224;28;20043;-49
2021/03/04 01:20:57;;;;;;;1.60;0.90;;;;;;;4.65;54.85;98363.84;5077204;28;20032;-45
2021/03/04 01:23:22;;;;;;;2.67;0.90;;;;;;;4.76;54.23;98370.09;5063083;28;20047;-44
2021/03/04 01:25:48;;;;;;;3.22;1.00;;;;;;;4.72;54.42;98353.59;5079832;28;20036;-42
2021/03/04 01:28:14;;;;;;;3.20;1.02;;;;;;;4.79;54.78;98359.22;5078186;28;20040;-46
2021/03/04 01:30:39;;;;;;;2.08;0.80;;;;;;;4.63;54.53;98339.25;5060996;28;20117;-43
2021/03/04 01:33:05;;;;;;;3.03;0.90;;;;;;;4.82;54.34;98357.19;5062472;28;20066;-44
2021/03/04 01:35:30;;;;;;;1.70;0.82;;;;;;;4.85;54.52;98364.88;5067908;28;20140;-45
2021/03/04 01:37:56;;;;;;;5.15;1.10;;;;;;;4.86;53.86;98377.19;5058532;28;20230;-44
2021/03/04 01:40:22;;;;;;;1.98;0.80;;;;;;;4.87;54.42;98347.03;5074278;28;20036;-49
2021/03/04 01:42:51;;;;;;;2.67;0.93;;;;;;;4.85;54.10;98333.06;5076392;28;20047;-42
2021/03/04 01:45:18;;;;;;;3.60;1.00;;;;;;;4.84;54.48;98344.63;5074335;28;20044;-43
2021/03/04 01:47:53;;;;;;;5.05;0.90;;;;;;;4.85;55.00;98330.41;5075369;28;20045;-42
2021/03/04 01:50:20;;;;;;;2.92;0.80;;;;;;;4.72;54.71;98332.38;5068420;28;20526;-45
2021/03/04 01:52:46;;;;;;;2.85;0.90;;;;;;;4.81;55.10;98336.06;5076475;28;20514;-49
2021/03/04 01:55:17;;;;;;;2.55;0.88;;;;;;;4.69;55.78;98329.94;5075239;28;20032;-48
2021/03/04 01:57:44;;;;;;;2.88;0.73;;;;;;;4.65;55.48;98323.22;5083630;28;20346;-48
2021/03/04 02:00:10;;;;;;;2.58;1.02;;;;;;;4.71;55.69;98331.53;5063900;28;20045;-48
2021/03/04 02:02:36;;;;;;;3.35;0.80;;;;;;;4.64;55.96;98319.75;5072285;28;20048;-45
2021/03/04 02:05:06;;;;;;;3.30;1.20;;;;;;;4.65;56.71;98324.06;5058624;28;20049;-46
2021/03/04 02:08:07;;;;;;;3.97;0.88;;;;;;;4.61;57.99;98325.28;5065062;28;20067;-47
2021/03/04 02:10:38;;;;;;;3.42;1.08;;;;;;;4.58;57.21;98314.91;5075813;28;20048;-46
2021/03/04 02:13:16;;;;;;;1.17;0.70;;;;;;;4.50;57.90;98320.84;5068707;28;20412;-46
2021/03/04 02:15:50;;;;;;;2.38;0.70;;;;;;;4.37;58.34;98315.69;5059284;28;20040;-44
2021/03/04 02:18:18;;;;;;;2.75;0.90;;;;;;;4.27;58.27;98304.97;5078699;28;20028;-45
2021/03/04 02:21:16;;;;;;;2.03;0.95;;;;;;;4.36;59.47;98298.09;5069823;28;20032;-45
2021/03/04 02:24:10;;;;;;;2.22;1.00;;;;;;;4.37;60.19;98313.03;5074576;28;20064;-46
2021/03/04 02:26:53;;;;;;;4.03;1.10;;;;;;;4.33;59.25;98300.13;5070834;28;20039;-49
2021/03/04 02:29:21;;;;;;;1.85;0.90;;;;;;;4.28;59.76;98309.31;5067098;28;20405;-46
2021/03/04 02:31:48;;;;;;;2.50;1.00;;;;;;;4.25;59.62;98300.75;5064737;28;20032;-44
2021/03/04 02:34:16;;;;;;;2.72;1.00;;;;;;;4.19;59.85;98293.28;5068930;28;20060;-48
2021/03/04 02:36:45;;;;;;;2.83;1.00;;;;;;;4.12;60.17;98287.63;5075942;28;20032;-44
2021/03/04 02:39:12;;;;;;;3.80;0.98;;;;;;;4.14;60.31;98286.56;5064865;28;20411;-46
2021/03/04 02:41:39;;;;;;;3.55;1.08;;;;;;;4.14;61.00;98291.00;5064803;28;20408;-45
2021/03/04 02:44:07;;;;;;;3.70;0.88;;;;;;;4.13;61.28;98294.59;5076243;28;20028;-43
2021/03/04 02:46:34;;;;;;;1.65;0.75;;;;;;;4.00;60.94;98265.59;5065450;28;20132;-44
2021/03/04 02:49:01;;;;;;;2.95;1.27;;;;;;;4.10;60.87;98298.34;5064319;28;20035;-44
2021/03/04 02:51:28;;;;;;;5.05;1.17;;;;;;;3.90;61.59;98251.41;5077011;28;20044;-46
2021/03/04 02:53:55;;;;;;;2.20;0.77;;;;;;;4.07;61.33;98280.03;5075343;28;20431;-45
2021/03/04 02:56:23;;;;;;;3.20;0.95;;;;;;;4.14;61.72;98294.50;5081797;28;20111;-49
2021/03/04 02:58:51;;;;;;;4.57;0.98;;;;;;;4.10;61.06;98269.22;5073046;28;20531;-45
2021/03/04 03:01:20;;;;;;;2.70;0.90;;;;;;;3.59;61.71;98194.59;5062473;28;20538;-43
2021/03/04 03:03:48;;;;;;;4.32;0.90;;;;;;;4.12;61.25;98279.69;5062466;28;20040;-44
2021/03/04 03:06:16;;;;;;;3.92;0.90;;;;;;;3.95;61.75;98236.81;5068156;28;20036;-44
2021/03/04 03:08:42;;;;;;;2.95;1.05;;;;;;;4.03;62.26;98262.69;5074526;28;20037;-44
2021/03/04 03:11:09;;;;;;;2.72;1.00;;;;;;;3.96;62.19;98261.50;5069155;28;20091;-44
2021/03/04 03:13:35;;;;;;;4.00;1.20;;;;;;;3.93;62.08;98256.47;5064529;28;20480;-45
2021/03/04 03:16:00;;;;;;;5.00;0.70;;;;;;;3.93;62.15;98253.81;5082784;28;20042;-43
2021/03/04 03:18:26;;;;;;;2.30;0.80;;;;;;;3.91;62.63;98259.22;5071597;28;20123;-49
2021/03/04 03:20:51;;;;;;;2.22;1.00;;;;;;;3.90;62.79;98248.75;5078464;28;20040;-45
2021/03/04 03:23:19;;;;;;;3.80;0.90;;;;;;;3.96;62.85;98250.91;5069005;28;20032;-45
2021/03/04 03:25:44;;;;;;;3.55;0.90;;;;;;;3.87;62.64;98226.84;5070124;28;20202;-47
2021/03/04 03:28:09;;;;;;;3.40;0.80;;;;;;;3.99;62.66;98245.38;5066800;28;20503;-48
2021/03/04 03:30:35;;;;;;;3.03;0.80;;;;;;;4.01;62.66;98244.31;5060283;28;20044;-44
2021/03/04 03:33:11;;;;;;;3.33;0.93;;;;;;;4.04;63.51;98237.91;5059681;28;20055;-44
2021/03/04 03:35:40;;;;;;;4.50;0.90;;;;;;;4.01;62.69;98227.56;5071969;28;20040;-47
2021/03/04 03:38:07;;;;;;;1.73;0.70;;;;;;;3.97;62.59;98229.59;5069440;28;20108;-43
2021/03/04 03:40:34;;;;;;;3.72;0.95;;;;;;;3.95;62.82;98228.03;5078463;28;20043;-48
2021/03/04 03:43:03;;;;;;;3.05;0.90;;;;;;;3.95;63.19;98228.03;5061277;28;20131;-50
2021/03/04 03:45:33;;;;;;;4.10;1.02;;;;;;;3.95;62.92;98212.97;5056457;28;20412;-45
2021/03/04 03:48:00;;;;;;;3.72;0.95;;;;;;;3.96;63.15;98208.53;5064944;28;20064;-44
2021/03/04 03:50:26;;;;;;;3.42;1.00;;;;;;;3.91;62.85;98200.13;5080476;28;20032;-44
2021/03/04 03:52:53;;;;;;;3.50;0.80;;;;;;;3.97;63.23;98205.75;5069867;28;20067;-42
2021/03/04 03:55:20;;;;;;;2.75;0.90;;;;;;;3.69;62.83;98156.81;5083325;28;20034;-44
2021/03/04 03:57:47;;;;;;;3.10;1.10;;;;;;;3.91;62.93;98200.97;5069008;28;20036;-42
2021/03/04 04:00:14;;;;;;;2.90;1.05;;;;;;;3.98;63.03;98202.19;5085948;28;20416;-45
2021/03/04 04:02:41;;;;;;;2.33;0.80;;;;;;;4.04;62.56;98194.69;5059615;28;20057;-42
2021/03/04 04:05:07;;;;;;;1.83;0.88;;;;;;;4.01;62.78;98193.13;5063963;28;20782;-44
2021/03/04 04:07:34;;;;;;;4.65;0.90;;;;;;;3.90;62.95;98175.44;5066610;28;20033;-43
2021/03/04 04:10:01;;;;;;;4.53;1.02;;;;;;;3.99;62.71;98182.69;5065066;28;20035;-43
2021/03/04 04:12:28;;;;;;;3.08;1.10;;;;;;;4.05;62.68;98191.91;5080521;28;20040;-43
2021/03/04 04:14:54;;;;;;;2.17;0.82;;;;;;;4.01;62.50;98183.41;5081711;28;20035;-43
2021/03/04 04:17:20;;;;;;;3.00;0.93;;;;;;;4.00;62.77;98189.66;5064267;28;20048;-45
2021/03/04 04:19:46;;;;;;;1.80;0.77;;;;;;;3.91;62.85;98163.88;5079082;28;20054;-48
2021/03/04 04:22:12;;;;;;;1.83;0.90;;;;;;;4.03;62.54;98185.91;5082347;28;20082;-44
2021/03/04 04:24:38;;;;;;;3.47;1.30;;;;;;;3.93;62.52;98174.38;5061610;28;20394;-44
2021/03/04 04:27:04;;;;;;;3.30;1.10;;;;;;;4.06;62.61;98177.69;5055872;28;20404;-45
2021/03/04 04:29:30;;;;;;;2.25;0.75;;;;;;;4.05;62.95;98191.09;5071030;28;20389;-45
2021/03/04 04:31:56;;;;;;;4.07;2.22;;;;;;;4.07;62.76;98179.38;5065562;28;20487;-47
2021/03/04 04:34:21;;;;;;;4.85;1.33;;;;;;;4.07;62.48;98176.75;5059915;28;20484;-47
2021/03/04 04:36:47;;;;;;;3.08;1.10;;;;;;;4.10;62.83;98184.47;5064464;28;20033;-50
2021/03/04 04:39:12;;;;;;;2.53;1.23;;;;;;;3.49;62.64;98066.63;5068392;28;20041;-44
2021/03/04 04:41:38;;;;;;;3.63;1.38;;;;;;;4.02;62.63;98157.72;5074682;28;20657;-46
2021/03/04 04:44:04;;;;;;;1.88;0.90;;;;;;;4.14;63.05;98182.38;5065998;28;20037;-47
2021/03/04 04:46:30;;;;;;;2.90;1.00;;;;;;;4.06;62.59;98161.00;5053521;28;20159;-52
2021/03/04 04:48:55;;;;;;;3.83;1.10;;;;;;;4.12;62.31;98171.94;5058319;28;20037;-43
2021/03/04 04:51:21;;;;;;;1.80;0.98;;;;;;;4.18;62.60;98162.63;5083495;28;20028;-46
2021/03/04 04:53:46;;;;;;;2.78;1.25;;;;;;;4.18;62.62;98159.16;5067115;28;20042;-47
2021/03/04 04:56:11;;;;;;;3.10;1.33;;;;;;;3.91;62.94;98110.09;5072236;28;20040;-44
2021/03/04 04:58:37;;;;;;;2.65;1.30;;;;;;;4.23;62.63;98152.53;5073620;28;20032;-42
2021/03/04 05:01:02;;;;;;;1.88;1.10;;;;;;;4.25;62.45;98150.59;5072922;28;20083;-43
2021/03/04 05:03:28;;;;;;;4.20;1.05;;;;;;;4.26;62.32;98148.75;5061391;28;20041;-44
2021/03/04 05:05:53;;;;;;;3.65;1.27;;;;;;;4.27;62.91;98148.66;5074274;28;20032;-46
2021/03/04 05:08:19;;;;;;;3.08;1.20;;;;;;;4.31;62.46;98151.88;5059445;28;20044;-50
2021/03/04 05:10:44;;;;;;;4.57;1.27;;;;;;;4.28;62.73;98138.88;5070151;28;20063;-47
2021/03/04 05:13:10;;;;;;;3.65;1.63;;;;;;;4.30;62.31;98139.59;5067943;28;20496;-47
2021/03/04 05:15:35;;;;;;;3.92;1.27;;;;;;;4.33;62.48;98147.28;5085761;28;20502;-43
2021/03/04 05:18:01;;;;;;;2.20;0.95;;;;;;;4.38;61.88;98139.81;5064629;28;20418;-48
2021/03/04 05:20:27;;;;;;;3.50;1.15;;;;;;;4.36;62.49;98130.31;5063709;28;20039;-45
2021/03/04 05:22:52;;;;;;;4.32;1.20;;;;;;;4.18;62.12;98116.78;5071951;28;20075;-45
2021/03/04 05:25:18;;;;;;;4.95;1.40;;;;;;;4.12;62.28;98110.16;5073075;28;20036;-43
2021/03/04 05:27:43;;;;;;;4.90;1.45;;;;;;;4.41;61.96;98138.72;5076512;28;20059;-46
2021/03/04 05:30:09;;;;;;;2.50;0.95;;;;;;;4.41;62.00;98126.31;5063680;28;20028;-47
2021/03/04 05:32:35;;;;;;;4.35;1.20;;;;;;;4.43;61.74;98142.94;5061866;28;20496;-46
2021/03/04 05:35:01;;;;;;;2.72;1.40;;;;;;;4.43;61.95;98140.28;5074404;28;20038;-45
2021/03/04 05:37:26;;;;;;;2.55;1.20;;;;;;;4.50;62.03;98131.81;5063776;28;20047;-46
2021/03/04 05:39:52;;;;;;;4.57;1.40;;;;;;;4.51;62.00;98138.81;5088675;28;20030;-47
2021/03/04 05:42:18;;;;;;;1.67;1.10;;;;;;;4.52;61.76;98145.78;5073523;28;20135;-45
2021/03/04 05:44:44;;;;;;;4.20;1.70;;;;;;;4.51;61.73;98128.19;5064147;28;20507;-45
2021/03/04 05:47:10;;;;;;;6.50;1.27;;;;;;;4.51;62.38;98129.06;5077925;28;20061;-52
2021/03/04 05:49:44;;;;;;;3.53;1.00;;;;;;;4.57;62.07;98132.97;5058915;28;20504;-44
2021/03/04 05:52:14;;;;;;;5.70;1.38;;;;;;;4.59;61.99;98131.06;5065614;28;20043;-44
2021/03/04 05:54:42;;;;;;;3.72;1.45;;;;;;;4.61;61.70;98131.78;5065043;28;20083;-49
2021/03/04 05:57:08;;;;;;;4.65;1.40;;;;;;;4.64;61.35;98117.41;5067198;28;20101;-53
2021/03/04 05:59:35;;;;;;;7.13;1.42;;;;;;;4.57;61.66;98115.28;5063639;28;20036;-45
2021/03/04 06:02:04;;;;;;;2.28;1.10;;;;;;;4.59;61.67;98116.00;5065101;28;20044;-43
2021/03/04 06:04:30;;;;;;;2.55;1.38;;;;;;;4.54;61.73;98112.03;5072762;28;20079;-51
2021/03/04 06:06:55;;;;;;;2.58;0.98;;;;;;;4.52;61.47;98114.84;5082854;28;20063;-49
2021/03/04 06:09:21;;;;;;;3.30;1.40;;;;;;;4.55;62.31;98113.72;5058743;28;20159;-47
2021/03/04 06:11:46;;;;;;;2.90;1.40;;;;;;;4.35;61.35;98078.28;5074363;28;20407;-44
2021/03/04 06:14:12;;;;;;;3.03;1.25;;;;;;;4.57;61.52;98106.47;5063130;28;20492;-47
2021/03/04 06:16:38;;;;;;;7.97;1.65;;;;;;;4.60;61.42;98103.59;5069863;28;20031;-44
2021/03/04 06:19:04;;;;;;;2.03;1.17;;;;;;;4.64;61.65;98107.66;5063590;28;20040;-43
2021/03/04 06:21:29;;;;;;;4.38;1.50;;;;;;;4.62;61.50;98100.81;5055357;28;20037;-46
2021/03/04 06:23:57;;;;;;;5.72;1.55;;;;;;;4.66;61.42;98118.97;5066602;28;20112;-48
2021/03/04 06:26:36;;;;;;;2.22;1.35;;;;;;;4.71;61.61;98108.81;5051606;28;20048;-51
2021/03/04 06:29:31;;;;;;;2.50;1.17;;;;;;;4.86;61.47;98105.84;5054595;28;20555;-43
2021/03/04 06:32:04;;;;;;;3.47;1.52;;;;;;;4.82;61.20;98120.31;5060981;28;20044;-49
2021/03/04 06:34:30;;;;;;;3.80;1.40;;;;;;;4.45;61.06;98050.91;5068190;28;20122;-51
2021/03/04 06:37:05;;;;;;;5.07;1.38;;;;;;;4.82;61.92;98117.66;5042367;28;20067;-40
2021/03/04 06:39:45;;;;;;;3.05;1.30;;;;;;;4.84;62.15;98092.72;5057025;28;20032;-48
2021/03/04 06:42:12;;;;;;;3.40;1.70;;;;;;;4.88;61.53;98119.81;5057081;28;20476;-50
2021/03/04 06:44:51;;;;;;;6.40;1.52;;;;;;;4.84;61.24;98091.91;5058942;28;20037;-55
2021/03/04 06:47:24;;;;;;;4.55;1.50;;;;;;;5.03;60.86;98096.47;5067816;28;20090;-51
2021/03/04 06:49:50;;;;;;;3.00;1.35;;;;;;;5.28;59.95;98107.63;5065264;28;20115;-46
2021/03/04 06:52:33;;;;;;;4.03;1.40;;;;;;;5.53;59.90;98093.03;5069715;28;20155;-51
2021/03/04 06:55:14;;;;;;;2.50;1.65;;;;;;;5.63;60.02;98095.72;5069696;28;20036;-52
2021/03/04 06:57:40;;;;;;;3.95;2.15;;;;;;;5.63;59.00;98092.25;5069710;28;20527;-55
2021/03/04 07:00:20;;;;;;;4.18;1.70;;;;;;;5.56;58.67;98097.25;5066368;28;20052;-46
2021/03/04 07:02:53;;;;;;;4.13;1.80;;;;;;;5.51;59.35;98081.72;5059131;28;20582;-46
2021/03/04 07:05:19;;;;;;;3.08;1.88;;;;;;;5.63;58.77;98095.72;5066979;28;20135;-44
2021/03/04 07:07:50;;;;;;;4.80;1.52;;;;;;;5.58;58.96;98101.44;5079759;28;20610;-43
2021/03/04 07:10:17;;;;;;;3.63;1.90;;;;;;;5.63;59.05;98108.16;5054583;28;20037;-53
2021/03/04 07:12:45;;;;;;;5.25;1.60;;;;;;;5.63;58.96;98093.06;5056126;28;20086;-48
2021/03/04 07:15:13;;;;;;;7.85;2.20;;;;;;;5.32;59.08;98035.56;5060840;28;20078;-46
2021/03/04 07:17:40;;;;;;;3.40;1.65;;;;;;;5.72;58.92;98102.88;5061999;28;20033;-47
2021/03/04 07:20:12;;;;;;;4.88;1.35;;;;;;;5.73;58.60;98099.25;5062328;28;20085;-49
2021/03/04 07:22:39;;;;;;;2.95;1.60;;;;;;;5.67;58.67;98077.72;5061409;28;20052;-50
2021/03/04 07:25:06;;;;;;;3.85;1.63;;;;;;;5.83;58.33;98099.28;5060187;28;20561;-49
2021/03/04 07:27:34;;;;;;;8.18;1.98;;;;;;;5.89;58.32;98092.56;5061785;28;20080;-57
2021/03/04 07:29:59;;;;;;;4.35;2.00;;;;;;;5.95;58.36;98101.81;5057459;28;20036;-49
2021/03/04 07:32:25;;;;;;;6.15;1.70;;;;;;;5.99;58.23;98093.44;5060221;28;20139;-45
2021/03/04 07:34:52;;;;;;;6.32;1.77;;;;;;;5.99;58.26;98097.91;5063181;28;20040;-48
2021/03/04 07:37:18;;;;;;;7.72;2.58;;;;;;;5.98;57.89;98081.13;5058636;28;20067;-46
2021/03/04 07:39:47;;;;;;;4.45;1.50;;;;;;;6.08;58.25;98083.84;5067183;28;20040;-51
2021/03/04 07:42:20;;;;;;;3.45;1.63;;;;;;;5.82;58.23;98031.22;5062042;28;20300;-44
2021/03/04 07:44:47;;;;;;;5.70;2.05;;;;;;;6.09;57.98;98072.22;5040856;28;20245;-47
2021/03/04 07:47:12;;;;;;;5.32;1.90;;;;;;;5.96;57.84;98074.28;5059025;28;20041;-52
2021/03/04 07:49:43;;;;;;;4.28;1.80;;;;;;;6.14;57.99;98079.75;5057974;28;20139;-46
2021/03/04 07:52:14;;;;;;;3.83;1.70;;;;;;;6.27;57.98;98076.84;5063706;28;20024;-45
2021/03/04 07:54:41;;;;;;;2.25;1.55;;;;;;;6.36;57.25;98077.81;5066994;28;20523;-42
2021/03/04 07:57:09;;;;;;;4.18;1.90;;;;;;;6.45;57.29;98077.00;5065447;28;20029;-48
2021/03/04 07:59:54;;;;;;;4.40;1.77;;;;;;;6.43;57.16;98047.06;5068263;28;20368;-51
2021/03/04 08:02:27;;;;;;;4.18;2.10;;;;;;;6.68;57.11;98069.53;5065481;28;20150;-47
2021/03/04 08:05:14;;;;;;;6.70;1.90;;;;;;;6.84;56.67;98063.63;5060374;28;20075;-50
2021/03/04 08:07:42;;;;;;;4.68;1.60;;;;;;;6.86;56.24;98061.66;5058138;28;20499;-48
2021/03/04 08:10:12;;;;;;;3.85;1.58;;;;;;;6.91;55.85;98079.03;5072439;28;20051;-53
2021/03/04 08:12:51;;;;;;;5.75;1.52;;;;;;;6.82;56.26;98054.13;5063126;28;20123;-45
2021/03/04 08:15:36;;;;;;;3.80;1.70;;;;;;;6.81;56.12;98063.91;5060730;28;20615;-52
2021/03/04 08:18:21;;;;;;;3.15;1.70;;;;;;;6.83;55.94;98071.75;5062184;28;20159;-45
2021/03/04 08:20:47;;;;;;;3.53;1.50;;;;;;;6.78;55.88;98061.53;5061932;28;20043;-47
2021/03/04 08:23:28;;;;;;;3.97;1.48;;;;;;;6.77;56.26;98065.19;5062356;28;20314;-54
2021/03/04 08:25:54;;;;;;;3.88;1.75;;;;;;;6.72;55.87;98068.25;5059890;28;20044;-52
2021/03/04 08:28:24;;;;;;;7.93;1.85;;;;;;;6.70;56.62;98059.59;5058383;28;20093;-49
2021/03/04 08:30:50;;;;;;;4.43;1.35;;;;;;;6.77;55.90;98051.06;5060737;28;20040;-48
2021/03/04 08:33:15;;;;;;;3.05;1.77;;;;;;;6.81;56.00;98047.94;5058863;28;20429;-46
2021/03/04 08:35:46;;;;;;;2.45;1.35;;;;;;;6.93;55.95;98053.94;5068825;28;20044;-50
2021/03/04 08:38:14;;;;;;;5.32;2.00;;;;;;;7.03;55.63;98057.44;5037192;28;20040;-45
2021/03/04 08:40:55;;;;;;;2.38;1.48;;;;;;;7.20;55.11;98054.16;5052813;28;20645;-48
2021/03/04 08:43:30;;;;;;;2.53;1.63;;;;;;;7.30;54.75;98053.13;5056837;28;20037;-46
2021/03/04 08:46:04;;;;;;;2.70;1.85;;;;;;;7.47;54.26;98050.66;5055855;28;20041;-48
2021/03/04 08:48:31;;;;;;;2.65;1.55;;;;;;;7.48;54.25;98052.34;5069463;28;20396;-55
2021/03/04 08:51:03;;;;;;;3.47;1.88;;;;;;;7.65;53.84;98047.19;5064832;28;20043;-49
2021/03/04 08:53:34;;;;;;;3.22;1.50;;;;;;;7.75;53.43;98056.81;5070055;28;20123;-43
2021/03/04 08:56:01;;;;;;;5.13;3.28;;;;;;;7.82;53.17;98058.84;5064072;28;20334;-48
2021/03/04 08:58:29;;;;;;;6.28;1.73;;;;;;;7.89;53.28;98054.63;5061529;28;20128;-51
2021/03/04 09:00:57;;;;;;;3.42;1.73;;;;;;;7.89;52.83;98052.78;5072988;28;20094;-47
2021/03/04 09:03:24;;;;;;;3.85;1.67;;;;;;;7.74;53.05;98038.31;5061465;28;20049;-46
2021/03/04 09:05:51;;;;;;;2.35;1.63;;;;;;;7.68;52.93;98033.56;5064911;28;20102;-51
2021/03/04 09:08:17;;;;;;;6.97;1.73;;;;;;;7.89;52.81;98059.97;5049770;28;20024;-51
2021/03/04 09:10:50;;;;;;;4.78;1.40;;;;;;;7.94;52.26;98047.00;5060187;28;20044;-51
2021/03/04 09:13:23;;;;;;;4.65;1.85;;;;;;;7.89;52.60;98055.44;5058834;28;20041;-52
2021/03/04 09:15:52;;;;;;;4.05;1.65;;;;;;;7.70;52.72;98066.22;5064882;28;20043;-50
2021/03/04 09:18:19;;;;;;;4.18;1.70;;;;;;;7.42;52.70;98071.56;5061151;28;20115;-46
2021/03/04 09:20:46;;;;;;;4.15;1.40;;;;;;;7.03;53.82;98065.41;5061248;28;20487;-47
2021/03/04 09:23:12;;;;;;;4.63;1.88;;;;;;;6.65;55.07;98035.25;5062315;28;20089;-53
2021/03/04 09:25:37;;;;;;;4.40;1.77;;;;;;;6.67;54.87;98064.38;5070246;28;20060;-48
2021/03/04 09:28:07;;;;;;;4.53;1.95;;;;;;;6.69;55.14;98079.19;5056198;28;20040;-44
2021/03/04 09:30:33;;;;;;;5.97;1.40;;;;;;;6.86;54.41;98076.78;5066851;28;20040;-47
2021/03/04 09:32:59;;;;;;;2.55;1.10;;;;;;;7.05;54.12;98089.19;5058063;28;20036;-46
2021/03/04 09:35:24;;;;;;;1.95;0.90;;;;;;;7.14;53.00;98088.34;5058017;28;20045;-46
2021/03/04 09:37:50;;;;;;;2.60;0.95;;;;;;;7.04;53.11;98084.84;5064272;28;20145;-47
2021/03/04 09:40:28;;;;;;;2.05;1.02;;;;;;;7.00;52.69;98075.50;5059858;28;20170;-44
2021/03/04 09:42:53;;;;;;;1.52;0.95;;;;;;;7.03;52.37;98092.03;5059788;28;20142;-44
2021/03/04 09:45:19;;;;;;;1.58;1.00;;;;;;;7.03;52.03;98089.34;5056570;28;20063;-45
2021/03/04 09:47:47;;;;;;;4.05;1.20;;;;;;;7.07;52.20;98087.22;5054907;28;20051;-43
2021/03/04 09:50:26;;;;;;;2.22;1.10;;;;;;;7.18;51.91;98089.72;5066182;28;20044;-51
2021/03/04 09:53:06;;;;;;;2.13;1.10;;;;;;;6.93;51.97;98026.50;5065740;28;20029;-45
2021/03/04 09:55:40;;;;;;;2.08;1.40;;;;;;;7.31;51.25;98089.41;5061486;28;20033;-51
2021/03/04 09:58:13;;;;;;;3.50;1.48;;;;;;;7.30;51.92;98082.41;5064540;28;20480;-49
2021/03/04 10:00:39;;;;;;;1.98;1.00;;;;;;;7.30;51.22;98086.88;5060170;28;20064;-44
2021/03/04 10:03:10;;;;;;;3.25;1.10;;;;;;;7.13;50.58;98092.00;5062214;28;20040;-48
2021/03/04 10:05:48;;;;;;;2.08;1.02;;;;;;;7.03;50.67;98096.50;5061243;28;20081;-47
2021/03/04 10:08:15;;;;;;;2.50;1.20;;;;;;;6.98;51.06;98086.25;5063994;28;20044;-45
2021/03/04 10:10:41;;;;;;;1.85;1.20;;;;;;;6.65;51.24;98032.59;5062387;28;20031;-49
2021/03/04 10:13:08;;;;;;;4.00;1.50;;;;;;;6.86;51.04;98069.63;5056238;28;20039;-47
2021/03/04 10:15:34;;;;;;;4.20;1.92;;;;;;;6.99;51.02;98087.97;5060523;28;20036;-47
2021/03/04 10:18:07;;;;;;;3.97;1.75;;;;;;;7.00;50.80;98087.00;5060838;28;20048;-45
2021/03/04 10:20:33;;;;;;;2.10;1.10;;;;;;;6.89;51.12;98080.00;5058396;28;20484;-46
2021/03/04 10:22:59;;;;;;;1.40;0.95;;;;;;;6.61;51.54;98049.81;5055967;28;20501;-43
2021/03/04 10:25:24;;;;;;;1.48;0.90;;;;;;;6.77;51.58;98091.78;5053753;28;20106;-45
2021/03/04 10:27:51;;;;;;;2.22;1.10;;;;;;;6.70;51.25;98088.84;5069862;28;20039;-46
2021/03/04 10:30:19;;;;;;;3.38;1.27;;;;;;;6.51;51.79;98094.19;5062777;28;20102;-45
2021/03/04 10:32:44;;;;;;;2.58;1.40;;;;;;;6.12;52.58;98087.88;5062352;28;20508;-45
2021/03/04 10:35:12;;;;;;;3.33;1.38;;;;;;;5.70;53.33;98099.53;5056223;28;20175;-54
2021/03/04 10:37:39;;;;;;;2.78;1.20;;;;;;;5.32;54.56;98103.72;5051651;28;20076;-46
2021/03/04 10:40:06;;;;;;;2.65;1.17;;;;;;;4.64;55.14;98054.66;5060155;28;20033;-47
2021/03/04 10:42:33;;;;;;;3.63;1.35;;;;;;;4.70;55.45;98107.16;5057596;28;20381;-47
2021/03/04 10:44:59;;;;;;;2.00;1.13;;;;;;;4.54;56.07;98090.84;5059429;28;20036;-47
2021/03/04 10:47:28;;;;;;;2.28;1.27;;;;;;;4.25;56.44;98059.66;5054580;28;20041;-45
2021/03/04 10:49:56;;;;;;;3.13;1.10;;;;;;;4.53;56.07;98110.34;5056600;28;20078;-46
2021/03/04 10:52:22;;;;;;;2.72;1.40;;;;;;;4.56;56.39;98110.09;5062959;28;20427;-52
2021/03/04 10:54:48;;;;;;;4.78;1.70;;;;;;;4.56;55.94;98103.00;5058341;28;20081;-46
2021/03/04 10:57:14;;;;;;;4.00;1.55;;;;;;;4.59;55.75;98116.00;5059776;28;20119;-50
2021/03/04 10:59:39;;;;;;;3.20;1.60;;;;;;;4.55;55.31;98089.88;5059722;28;20408;-51
2021/03/04 11:02:05;;;;;;;3.17;1.65;;;;;;;4.86;54.91;98113.81;5063997;28;20534;-51
2021/03/04 11:04:30;;;;;;;4.35;1.60;;;;;;;4.86;55.04;98121.78;5057843;28;20040;-49
2021/03/04 11:06:56;;;;;;;2.80;1.30;;;;;;;4.71;54.12;98098.22;5053917;28;20033;-52
2021/03/04 11:09:21;;;;;;;3.47;1.27;;;;;;;4.72;54.12;98115.81;5059120;28;20041;-46
2021/03/04 11:11:47;;;;;;;5.70;1.27;;;;;;;4.70;54.27;98115.09;5060049;28;20032;-43
2021/03/04 11:14:12;;;;;;;3.88;0.90;;;;;;;4.68;54.30;98119.69;5057469;28;20090;-46
2021/03/04 11:16:38;;;;;;;4.00;1.30;;;;;;;4.71;54.09;98114.13;5056184;28;20024;-45
2021/03/04 11:19:04;;;;;;;2.15;1.10;;;;;;;4.70;54.20;98104.50;5063739;28;20100;-43
2021/03/04 11:21:30;;;;;;;3.22;1.10;;;;;;;4.86;53.83;98113.81;5059485;28;20039;-46
2021/03/04 11:23:56;;;;;;;2.15;1.13;;;;;;;4.96;54.39;98116.53;5058186;28;20033;-44
2021/03/04 11:26:21;;;;;;;2.72;0.90;;;;;;;4.65;54.17;98040.41;5060116;28;20047;-47
2021/03/04 11:28:47;;;;;;;1.60;0.88;;;;;;;5.15;53.37;98110.47;5059239;28;20033;-49
2021/03/04 11:31:12;;;;;;;4.47;1.25;;;;;;;5.28;53.08;98110.25;5062386;28;20032;-52
2021/03/04 11:33:38;;;;;;;4.80;1.15;;;;;;;5.45;52.77;98116.75;5054851;28;20040;-52
2021/03/04 11:36:04;;;;;;;5.70;1.33;;;;;;;5.48;52.55;98111.19;5061864;28;20485;-52
2021/03/04 11:38:29;;;;;;;2.03;1.42;;;;;;;5.49;52.25;98102.25;5060566;28;20032;-48
2021/03/04 11:40:55;;;;;;;2.10;1.58;;;;;;;5.71;51.58;98121.59;5057407;28;20850;-45
2021/03/04 11:43:20;;;;;;;6.38;1.80;;;;;;;5.68;51.89;98088.22;5059242;28;20043;-48
2021/03/04 11:45:46;;;;;;;6.53;2.03;;;;;;;6.00;50.90;98099.56;5061413;28;20044;-48